sensor_id;sensor_type;location;lat;lon;timestamp;P1;durP1;ratioP1;P2;durP2;ratioP2
47009;SDS011;59230;54.164;-3.124;2023-05-10T00:01:52;26.58;;;6.72;;
47009;SDS011;59230;54.164;-3.124;2023-05-10T00:04:17;29.13;;;7.07;;
47009;SDS011;59230;54.164;-3.124;2023-05-10T00:06:43;16.95;;;5.28;;
47009;SDS011;59230;54.164;-3.124;2023-05-10T00:09:08;24.73;;;6.50;;
47009;SDS011;59230;54.164;-3.124;2023-05-10T00:11:33;23.63;;;6.97;;
47009;SDS011;59230;54.164;-3.124;2023-05-10T00:13:59;27.33;;;6.68;;
47009;SDS011;59230;54.164;-3.124;2023-05-10T00:16:24;26.40;;;7.47;;
47009;SDS011;59230;54.164;-3.124;2023-05-10T00:18:50;23.40;;;6.55;;
47009;SDS011;59230;54.164;-3.124;2023-05-10T00:21:15;27.95;;;6.57;;
47009;SDS011;59230;54.164;-3.124;2023-05-10T00:23:41;25.45;;;6.18;;
47009;SDS011;59230;54.164;-3.124;2023-05-10T00:26:06;27.92;;;7.10;;
47009;SDS011;59230;54.164;-3.124;2023-05-10T00:28:32;19.20;;;6.40;;
47009;SDS011;59230;54.164;-3.124;2023-05-10T00:30:57;20.23;;;7.07;;
47009;SDS011;59230;54.164;-3.124;2023-05-10T00:33:22;36.35;;;7.68;;
47009;SDS011;59230;54.164;-3.124;2023-05-10T00:35:48;41.28;;;8.60;;
47009;SDS011;59230;54.164;-3.124;2023-05-10T00:38:13;44.85;;;8.05;;
47009;SDS011;59230;54.164;-3.124;2023-05-10T00:40:39;27.50;;;8.05;;
47009;SDS011;59230;54.164;-3.124;2023-05-10T00:43:05;42.72;;;8.48;;
47009;SDS011;59230;54.164;-3.124;2023-05-10T00:45:33;35.00;;;9.13;;
47009;SDS011;59230;54.164;-3.124;2023-05-10T00:48:03;33.60;;;8.15;;
47009;SDS011;59230;54.164;-3.124;2023-05-10T00:50:30;19.85;;;6.80;;
47009;SDS011;59230;54.164;-3.124;2023-05-10T00:52:56;27.20;;;7.43;;
47009;SDS011;59230;54.164;-3.124;2023-05-10T00:55:22;29.20;;;8.77;;
47009;SDS011;59230;54.164;-3.124;2023-05-10T00:57:48;82.30;;;9.18;;
47009;SDS011;59230;54.164;-3.124;2023-05-10T01:00:14;34.05;;;6.55;;
47009;SDS011;59230;54.164;-3.124;2023-05-10T01:02:43;29.60;;;5.88;;
47009;SDS011;59230;54.164;-3.124;2023-05-10T01:05:09;19.85;;;6.60;;
47009;SDS011;59230;54.164;-3.124;2023-05-10T01:07:35;18.63;;;7.03;;
47009;SDS011;59230;54.164;-3.124;2023-05-10T01:10:00;16.30;;;7.15;;
47009;SDS011;59230;54.164;-3.124;2023-05-10T01:12:26;22.95;;;7.90;;
47009;SDS011;59230;54.164;-3.124;2023-05-10T01:14:51;26.63;;;8.35;;
47009;SDS011;59230;54.164;-3.124;2023-05-10T01:17:17;26.25;;;8.32;;
47009;SDS011;59230;54.164;-3.124;2023-05-10T01:19:43;19.70;;;7.38;;
47009;SDS011;59230;54.164;-3.124;2023-05-10T01:22:29;23.75;;;8.00;;
47009;SDS011;59230;54.164;-3.124;2023-05-10T01:30:35;22.63;;;7.47;;
47009;SDS011;59230;54.164;-3.124;2023-05-10T01:41:36;50.33;;;11.77;;
47009;SDS011;59230;54.164;-3.124;2023-05-10T01:44:10;36.55;;;10.00;;
47009;SDS011;59230;54.164;-3.124;2023-05-10T01:46:40;43.33;;;10.50;;
47009;SDS011;59230;54.164;-3.124;2023-05-10T01:49:08;48.40;;;10.55;;
47009;SDS011;59230;54.164;-3.124;2023-05-10T01:51:53;42.10;;;10.88;;
47009;SDS011;59230;54.164;-3.124;2023-05-10T01:54:21;46.10;;;11.10;;
47009;SDS011;59230;54.164;-3.124;2023-05-10T01:56:55;46.10;;;10.52;;
47009;SDS011;59230;54.164;-3.124;2023-05-10T01:59:27;40.90;;;10.00;;
47009;SDS011;59230;54.164;-3.124;2023-05-10T02:01:54;34.63;;;9.63;;
47009;SDS011;59230;54.164;-3.124;2023-05-10T02:04:22;35.70;;;9.98;;
47009;SDS011;59230;54.164;-3.124;2023-05-10T02:06:49;43.60;;;10.98;;
47009;SDS011;59230;54.164;-3.124;2023-05-10T02:09:15;39.45;;;9.80;;
47009;SDS011;59230;54.164;-3.124;2023-05-10T02:11:42;39.05;;;10.43;;
47009;SDS011;59230;54.164;-3.124;2023-05-10T02:14:08;48.10;;;10.93;;
47009;SDS011;59230;54.164;-3.124;2023-05-10T02:16:35;41.15;;;11.43;;
47009;SDS011;59230;54.164;-3.124;2023-05-10T02:19:01;33.50;;;10.40;;
47009;SDS011;59230;54.164;-3.124;2023-05-10T02:21:27;40.45;;;10.48;;
47009;SDS011;59230;54.164;-3.124;2023-05-10T02:23:53;34.30;;;10.30;;
47009;SDS011;59230;54.164;-3.124;2023-05-10T02:26:20;27.52;;;9.77;;
47009;SDS011;59230;54.164;-3.124;2023-05-10T02:28:46;27.67;;;10.55;;
47009;SDS011;59230;54.164;-3.124;2023-05-10T02:31:12;29.00;;;9.60;;
47009;SDS011;59230;54.164;-3.124;2023-05-10T02:33:39;33.20;;;9.18;;
47009;SDS011;59230;54.164;-3.124;2023-05-10T02:36:05;36.78;;;9.82;;
47009;SDS011;59230;54.164;-3.124;2023-05-10T02:38:32;27.95;;;9.65;;
47009;SDS011;59230;54.164;-3.124;2023-05-10T02:40:58;39.80;;;10.23;;
47009;SDS011;59230;54.164;-3.124;2023-05-10T02:43:25;22.92;;;8.57;;
47009;SDS011;59230;54.164;-3.124;2023-05-10T02:45:50;34.85;;;10.15;;
47009;SDS011;59230;54.164;-3.124;2023-05-10T02:48:16;34.05;;;10.25;;
47009;SDS011;59230;54.164;-3.124;2023-05-10T02:50:43;26.67;;;9.63;;
47009;SDS011;59230;54.164;-3.124;2023-05-10T02:53:10;31.15;;;10.10;;
47009;SDS011;59230;54.164;-3.124;2023-05-10T02:55:39;28.10;;;9.25;;
47009;SDS011;59230;54.164;-3.124;2023-05-10T02:58:06;39.35;;;10.15;;
47009;SDS011;59230;54.164;-3.124;2023-05-10T03:00:32;31.77;;;9.77;;
47009;SDS011;59230;54.164;-3.124;2023-05-10T03:02:57;30.75;;;9.48;;
47009;SDS011;59230;54.164;-3.124;2023-05-10T03:05:23;30.98;;;9.35;;
47009;SDS011;59230;54.164;-3.124;2023-05-10T03:07:48;32.72;;;9.90;;
47009;SDS011;59230;54.164;-3.124;2023-05-10T03:10:15;33.55;;;9.52;;
47009;SDS011;59230;54.164;-3.124;2023-05-10T03:16:15;44.53;;;10.43;;
47009;SDS011;59230;54.164;-3.124;2023-05-10T03:18:29;83.90;;;10.77;;
47009;SDS011;59230;54.164;-3.124;2023-05-10T03:20:59;59.10;;;8.32;;
47009;SDS011;59230;54.164;-3.124;2023-05-10T03:23:32;20.55;;;7.28;;
47009;SDS011;59230;54.164;-3.124;2023-05-10T03:26:15;14.38;;;6.57;;
47009;SDS011;59230;54.164;-3.124;2023-05-10T03:28:52;25.02;;;8.10;;
47009;SDS011;59230;54.164;-3.124;2023-05-10T03:31:18;27.52;;;8.88;;
47009;SDS011;59230;54.164;-3.124;2023-05-10T03:33:47;27.48;;;8.38;;
47009;SDS011;59230;54.164;-3.124;2023-05-10T03:36:13;22.77;;;7.97;;
47009;SDS011;59230;54.164;-3.124;2023-05-10T03:38:39;29.80;;;8.60;;
47009;SDS011;59230;54.164;-3.124;2023-05-10T03:41:04;33.33;;;8.30;;
47009;SDS011;59230;54.164;-3.124;2023-05-10T03:43:29;31.33;;;6.68;;
47009;SDS011;59230;54.164;-3.124;2023-05-10T03:45:55;16.60;;;6.50;;
47009;SDS011;59230;54.164;-3.124;2023-05-10T03:48:20;14.00;;;6.47;;
47009;SDS011;59230;54.164;-3.124;2023-05-10T03:50:46;32.53;;;6.47;;
47009;SDS011;59230;54.164;-3.124;2023-05-10T03:53:12;32.65;;;7.82;;
47009;SDS011;59230;54.164;-3.124;2023-05-10T03:55:37;19.42;;;6.18;;
47009;SDS011;59230;54.164;-3.124;2023-05-10T03:58:02;20.77;;;6.95;;
47009;SDS011;59230;54.164;-3.124;2023-05-10T04:00:28;14.93;;;6.28;;
47009;SDS011;59230;54.164;-3.124;2023-05-10T04:02:53;13.05;;;5.53;;
47009;SDS011;59230;54.164;-3.124;2023-05-10T04:05:19;12.43;;;5.20;;
47009;SDS011;59230;54.164;-3.124;2023-05-10T04:07:44;29.50;;;7.60;;
47009;SDS011;59230;54.164;-3.124;2023-05-10T04:10:10;20.58;;;7.88;;
47009;SDS011;59230;54.164;-3.124;2023-05-10T04:12:36;25.60;;;8.40;;
47009;SDS011;59230;54.164;-3.124;2023-05-10T04:15:01;19.55;;;8.05;;
47009;SDS011;59230;54.164;-3.124;2023-05-10T04:17:27;20.17;;;7.85;;
47009;SDS011;59230;54.164;-3.124;2023-05-10T04:19:53;26.75;;;8.98;;
47009;SDS011;59230;54.164;-3.124;2023-05-10T04:22:19;22.95;;;7.63;;
47009;SDS011;59230;54.164;-3.124;2023-05-10T04:24:45;26.85;;;8.43;;
47009;SDS011;59230;54.164;-3.124;2023-05-10T04:27:11;22.00;;;8.23;;
47009;SDS011;59230;54.164;-3.124;2023-05-10T04:29:36;25.90;;;7.07;;
47009;SDS011;59230;54.164;-3.124;2023-05-10T04:32:03;16.38;;;6.40;;
47009;SDS011;59230;54.164;-3.124;2023-05-10T04:34:29;13.10;;;6.32;;
47009;SDS011;59230;54.164;-3.124;2023-05-10T04:36:54;29.13;;;8.05;;
47009;SDS011;59230;54.164;-3.124;2023-05-10T04:39:20;20.20;;;5.80;;
47009;SDS011;59230;54.164;-3.124;2023-05-10T04:41:45;14.15;;;5.43;;
47009;SDS011;59230;54.164;-3.124;2023-05-10T04:44:11;26.92;;;6.03;;
47009;SDS011;59230;54.164;-3.124;2023-05-10T04:46:36;216.73;;;9.05;;
47009;SDS011;59230;54.164;-3.124;2023-05-10T04:49:02;134.65;;;9.35;;
47009;SDS011;59230;54.164;-3.124;2023-05-10T04:51:27;18.25;;;7.03;;
47009;SDS011;59230;54.164;-3.124;2023-05-10T04:53:53;36.53;;;8.60;;
47009;SDS011;59230;54.164;-3.124;2023-05-10T04:56:18;19.58;;;7.57;;
47009;SDS011;59230;54.164;-3.124;2023-05-10T04:58:44;19.08;;;6.95;;
47009;SDS011;59230;54.164;-3.124;2023-05-10T05:01:09;24.00;;;7.75;;
47009;SDS011;59230;54.164;-3.124;2023-05-10T05:03:35;34.83;;;8.30;;
47009;SDS011;59230;54.164;-3.124;2023-05-10T05:06:01;19.25;;;7.28;;
47009;SDS011;59230;54.164;-3.124;2023-05-10T05:08:27;27.08;;;7.25;;
47009;SDS011;59230;54.164;-3.124;2023-05-10T05:10:52;24.80;;;7.15;;
47009;SDS011;59230;54.164;-3.124;2023-05-10T05:13:18;14.70;;;6.68;;
47009;SDS011;59230;54.164;-3.124;2023-05-10T05:15:43;28.88;;;7.60;;
47009;SDS011;59230;54.164;-3.124;2023-05-10T05:18:09;25.42;;;8.38;;
47009;SDS011;59230;54.164;-3.124;2023-05-10T05:20:35;18.55;;;7.85;;
47009;SDS011;59230;54.164;-3.124;2023-05-10T05:23:00;23.23;;;7.35;;
47009;SDS011;59230;54.164;-3.124;2023-05-10T05:25:26;24.08;;;7.65;;
47009;SDS011;59230;54.164;-3.124;2023-05-10T05:27:51;24.05;;;8.13;;
47009;SDS011;59230;54.164;-3.124;2023-05-10T05:30:17;25.67;;;8.18;;
47009;SDS011;59230;54.164;-3.124;2023-05-10T05:32:42;25.27;;;9.07;;
47009;SDS011;59230;54.164;-3.124;2023-05-10T05:35:08;26.25;;;9.15;;
47009;SDS011;59230;54.164;-3.124;2023-05-10T05:37:33;19.98;;;8.40;;
47009;SDS011;59230;54.164;-3.124;2023-05-10T05:39:59;23.67;;;8.95;;
47009;SDS011;59230;54.164;-3.124;2023-05-10T05:42:26;23.17;;;9.45;;
47009;SDS011;59230;54.164;-3.124;2023-05-10T05:44:52;37.58;;;9.77;;
47009;SDS011;59230;54.164;-3.124;2023-05-10T05:47:17;26.80;;;9.18;;
47009;SDS011;59230;54.164;-3.124;2023-05-10T05:49:42;21.42;;;7.90;;
47009;SDS011;59230;54.164;-3.124;2023-05-10T05:52:10;17.20;;;7.43;;
47009;SDS011;59230;54.164;-3.124;2023-05-10T05:54:36;24.67;;;8.27;;
47009;SDS011;59230;54.164;-3.124;2023-05-10T05:57:01;29.52;;;9.07;;
47009;SDS011;59230;54.164;-3.124;2023-05-10T05:59:27;26.05;;;8.50;;
47009;SDS011;59230;54.164;-3.124;2023-05-10T06:01:53;26.92;;;8.88;;
47009;SDS011;59230;54.164;-3.124;2023-05-10T06:04:18;27.65;;;8.27;;
47009;SDS011;59230;54.164;-3.124;2023-05-10T06:06:44;26.92;;;8.90;;
47009;SDS011;59230;54.164;-3.124;2023-05-10T06:09:10;24.25;;;8.80;;
47009;SDS011;59230;54.164;-3.124;2023-05-10T06:11:35;30.38;;;9.65;;
47009;SDS011;59230;54.164;-3.124;2023-05-10T06:14:01;30.27;;;9.60;;
47009;SDS011;59230;54.164;-3.124;2023-05-10T06:16:28;28.48;;;8.45;;
47009;SDS011;59230;54.164;-3.124;2023-05-10T06:18:54;25.02;;;8.05;;
47009;SDS011;59230;54.164;-3.124;2023-05-10T06:21:20;25.85;;;8.20;;
47009;SDS011;59230;54.164;-3.124;2023-05-10T06:23:46;29.63;;;7.95;;
47009;SDS011;59230;54.164;-3.124;2023-05-10T06:26:11;21.60;;;7.30;;
47009;SDS011;59230;54.164;-3.124;2023-05-10T06:28:36;23.98;;;7.18;;
47009;SDS011;59230;54.164;-3.124;2023-05-10T06:31:05;22.92;;;6.55;;
47009;SDS011;59230;54.164;-3.124;2023-05-10T06:33:31;20.98;;;5.53;;
47009;SDS011;59230;54.164;-3.124;2023-05-10T06:35:57;20.67;;;4.97;;
47009;SDS011;59230;54.164;-3.124;2023-05-10T06:38:23;25.23;;;4.80;;
47009;SDS011;59230;54.164;-3.124;2023-05-10T06:40:48;20.77;;;3.88;;
47009;SDS011;59230;54.164;-3.124;2023-05-10T06:43:14;23.55;;;4.70;;
47009;SDS011;59230;54.164;-3.124;2023-05-10T06:45:39;26.27;;;4.32;;
47009;SDS011;59230;54.164;-3.124;2023-05-10T06:48:06;17.85;;;3.85;;
47009;SDS011;59230;54.164;-3.124;2023-05-10T06:50:31;23.65;;;3.70;;
47009;SDS011;59230;54.164;-3.124;2023-05-10T06:52:57;32.78;;;4.15;;
47009;SDS011;59230;54.164;-3.124;2023-05-10T06:55:23;22.00;;;3.40;;
47009;SDS011;59230;54.164;-3.124;2023-05-10T06:57:48;26.00;;;4.60;;
47009;SDS011;59230;54.164;-3.124;2023-05-10T07:00:14;17.48;;;3.88;;
47009;SDS011;59230;54.164;-3.124;2023-05-10T07:02:39;25.77;;;4.95;;
47009;SDS011;59230;54.164;-3.124;2023-05-10T07:05:05;20.83;;;3.83;;
47009;SDS011;59230;54.164;-3.124;2023-05-10T07:07:31;21.88;;;3.42;;
47009;SDS011;59230;54.164;-3.124;2023-05-10T07:09:56;29.52;;;3.72;;
47009;SDS011;59230;54.164;-3.124;2023-05-10T07:12:22;21.67;;;3.70;;
47009;SDS011;59230;54.164;-3.124;2023-05-10T07:14:48;19.27;;;3.08;;
47009;SDS011;59230;54.164;-3.124;2023-05-10T07:17:14;23.55;;;3.40;;
47009;SDS011;59230;54.164;-3.124;2023-05-10T07:19:40;21.58;;;3.47;;
47009;SDS011;59230;54.164;-3.124;2023-05-10T07:22:05;19.75;;;3.75;;
47009;SDS011;59230;54.164;-3.124;2023-05-10T07:24:31;16.17;;;3.25;;
47009;SDS011;59230;54.164;-3.124;2023-05-10T07:26:57;26.45;;;3.80;;
47009;SDS011;59230;54.164;-3.124;2023-05-10T07:29:22;21.50;;;3.38;;
47009;SDS011;59230;54.164;-3.124;2023-05-10T07:31:48;20.95;;;3.53;;
47009;SDS011;59230;54.164;-3.124;2023-05-10T07:34:13;30.23;;;4.03;;
47009;SDS011;59230;54.164;-3.124;2023-05-10T07:36:39;22.73;;;4.20;;
47009;SDS011;59230;54.164;-3.124;2023-05-10T07:39:04;18.27;;;3.30;;
47009;SDS011;59230;54.164;-3.124;2023-05-10T07:41:30;23.67;;;4.22;;
47009;SDS011;59230;54.164;-3.124;2023-05-10T07:43:55;19.98;;;3.05;;
47009;SDS011;59230;54.164;-3.124;2023-05-10T07:46:21;23.42;;;3.30;;
47009;SDS011;59230;54.164;-3.124;2023-05-10T07:48:46;15.05;;;3.33;;
47009;SDS011;59230;54.164;-3.124;2023-05-10T07:51:11;19.85;;;3.70;;
47009;SDS011;59230;54.164;-3.124;2023-05-10T07:53:37;17.08;;;3.72;;
47009;SDS011;59230;54.164;-3.124;2023-05-10T07:58:54;23.98;;;3.33;;
47009;SDS011;59230;54.164;-3.124;2023-05-10T08:01:23;18.80;;;3.63;;
47009;SDS011;59230;54.164;-3.124;2023-05-10T08:03:49;17.50;;;3.33;;
47009;SDS011;59230;54.164;-3.124;2023-05-10T08:06:16;19.08;;;3.63;;
47009;SDS011;59230;54.164;-3.124;2023-05-10T08:08:43;26.95;;;4.35;;
47009;SDS011;59230;54.164;-3.124;2023-05-10T08:11:10;19.63;;;4.38;;
47009;SDS011;59230;54.164;-3.124;2023-05-10T08:13:36;21.88;;;4.13;;
47009;SDS011;59230;54.164;-3.124;2023-05-10T08:16:01;20.23;;;3.22;;
47009;SDS011;59230;54.164;-3.124;2023-05-10T08:18:27;21.67;;;3.38;;
47009;SDS011;59230;54.164;-3.124;2023-05-10T08:20:53;17.77;;;2.85;;
47009;SDS011;59230;54.164;-3.124;2023-05-10T08:23:18;14.23;;;2.45;;
47009;SDS011;59230;54.164;-3.124;2023-05-10T08:25:44;15.38;;;2.83;;
47009;SDS011;59230;54.164;-3.124;2023-05-10T08:28:09;10.40;;;2.78;;
47009;SDS011;59230;54.164;-3.124;2023-05-10T08:30:35;16.52;;;3.13;;
47009;SDS011;59230;54.164;-3.124;2023-05-10T08:33:00;12.27;;;3.10;;
47009;SDS011;59230;54.164;-3.124;2023-05-10T08:35:25;20.67;;;3.60;;
47009;SDS011;59230;54.164;-3.124;2023-05-10T08:37:51;18.52;;;3.92;;
47009;SDS011;59230;54.164;-3.124;2023-05-10T08:40:16;13.10;;;2.95;;
47009;SDS011;59230;54.164;-3.124;2023-05-10T08:42:46;21.10;;;3.60;;
47009;SDS011;59230;54.164;-3.124;2023-05-10T08:45:16;16.35;;;3.85;;
47009;SDS011;59230;54.164;-3.124;2023-05-10T08:47:42;13.48;;;2.53;;
47009;SDS011;59230;54.164;-3.124;2023-05-10T08:50:08;14.77;;;2.53;;
47009;SDS011;59230;54.164;-3.124;2023-05-10T08:52:35;10.60;;;2.72;;
47009;SDS011;59230;54.164;-3.124;2023-05-10T08:55:04;12.00;;;2.67;;
47009;SDS011;59230;54.164;-3.124;2023-05-10T08:57:29;14.00;;;2.50;;
47009;SDS011;59230;54.164;-3.124;2023-05-10T08:59:55;12.60;;;2.03;;
47009;SDS011;59230;54.164;-3.124;2023-05-10T09:02:20;17.35;;;3.28;;
47009;SDS011;59230;54.164;-3.124;2023-05-10T09:04:46;18.00;;;3.08;;
47009;SDS011;59230;54.164;-3.124;2023-05-10T09:07:11;14.07;;;2.30;;
47009;SDS011;59230;54.164;-3.124;2023-05-10T09:09:37;14.63;;;2.72;;
47009;SDS011;59230;54.164;-3.124;2023-05-10T09:12:03;21.08;;;2.72;;
47009;SDS011;59230;54.164;-3.124;2023-05-10T09:14:29;14.25;;;2.58;;
47009;SDS011;59230;54.164;-3.124;2023-05-10T09:16:55;13.45;;;2.30;;
47009;SDS011;59230;54.164;-3.124;2023-05-10T09:19:21;12.77;;;2.80;;
47009;SDS011;59230;54.164;-3.124;2023-05-10T09:21:46;12.23;;;2.30;;
47009;SDS011;59230;54.164;-3.124;2023-05-10T09:24:12;10.18;;;2.40;;
47009;SDS011;59230;54.164;-3.124;2023-05-10T09:26:45;14.77;;;2.50;;
47009;SDS011;59230;54.164;-3.124;2023-05-10T09:29:13;18.02;;;2.88;;
47009;SDS011;59230;54.164;-3.124;2023-05-10T09:31:46;13.90;;;2.83;;
47009;SDS011;59230;54.164;-3.124;2023-05-10T09:34:16;13.43;;;2.67;;
47009;SDS011;59230;54.164;-3.124;2023-05-10T09:36:52;19.02;;;3.13;;
47009;SDS011;59230;54.164;-3.124;2023-05-10T09:39:18;17.23;;;2.90;;
47009;SDS011;59230;54.164;-3.124;2023-05-10T09:41:44;20.67;;;2.67;;
47009;SDS011;59230;54.164;-3.124;2023-05-10T09:44:09;14.93;;;2.47;;
47009;SDS011;59230;54.164;-3.124;2023-05-10T09:46:35;13.82;;;2.47;;
47009;SDS011;59230;54.164;-3.124;2023-05-10T09:49:01;14.35;;;2.90;;
47009;SDS011;59230;54.164;-3.124;2023-05-10T09:51:26;11.82;;;2.60;;
47009;SDS011;59230;54.164;-3.124;2023-05-10T09:54:12;14.57;;;3.13;;
47009;SDS011;59230;54.164;-3.124;2023-05-10T09:56:39;17.77;;;3.05;;
47009;SDS011;59230;54.164;-3.124;2023-05-10T09:59:06;17.80;;;2.85;;
47009;SDS011;59230;54.164;-3.124;2023-05-10T10:01:34;10.57;;;2.22;;
47009;SDS011;59230;54.164;-3.124;2023-05-10T10:04:02;21.45;;;2.85;;
47009;SDS011;59230;54.164;-3.124;2023-05-10T10:06:29;13.02;;;2.97;;
47009;SDS011;59230;54.164;-3.124;2023-05-10T10:08:54;14.43;;;2.40;;
47009;SDS011;59230;54.164;-3.124;2023-05-10T10:11:21;16.85;;;2.65;;
47009;SDS011;59230;54.164;-3.124;2023-05-10T10:13:47;15.32;;;2.65;;
47009;SDS011;59230;54.164;-3.124;2023-05-10T10:16:12;11.30;;;2.45;;
47009;SDS011;59230;54.164;-3.124;2023-05-10T10:18:37;20.35;;;3.20;;
47009;SDS011;59230;54.164;-3.124;2023-05-10T10:21:06;18.08;;;2.88;;
47009;SDS011;59230;54.164;-3.124;2023-05-10T10:23:34;10.55;;;2.63;;
47009;SDS011;59230;54.164;-3.124;2023-05-10T10:26:00;8.57;;;2.25;;
47009;SDS011;59230;54.164;-3.124;2023-05-10T10:29:10;12.35;;;2.35;;
47009;SDS011;59230;54.164;-3.124;2023-05-10T10:36:46;9.30;;;2.15;;
47009;SDS011;59230;54.164;-3.124;2023-05-10T10:39:13;9.07;;;2.03;;
47009;SDS011;59230;54.164;-3.124;2023-05-10T10:41:49;14.30;;;2.25;;
47009;SDS011;59230;54.164;-3.124;2023-05-10T10:44:23;11.40;;;2.22;;
47009;SDS011;59230;54.164;-3.124;2023-05-10T10:52:22;10.35;;;2.47;;
47009;SDS011;59230;54.164;-3.124;2023-05-10T10:54:51;6.55;;;1.98;;
47009;SDS011;59230;54.164;-3.124;2023-05-10T10:57:18;7.45;;;2.28;;
47009;SDS011;59230;54.164;-3.124;2023-05-10T10:59:44;10.98;;;2.38;;
47009;SDS011;59230;54.164;-3.124;2023-05-10T11:02:10;7.97;;;1.80;;
47009;SDS011;59230;54.164;-3.124;2023-05-10T11:04:59;8.48;;;2.00;;
47009;SDS011;59230;54.164;-3.124;2023-05-10T11:07:25;14.63;;;2.47;;
47009;SDS011;59230;54.164;-3.124;2023-05-10T11:09:51;10.95;;;2.20;;
47009;SDS011;59230;54.164;-3.124;2023-05-10T11:12:16;9.55;;;2.20;;
47009;SDS011;59230;54.164;-3.124;2023-05-10T11:14:42;9.13;;;2.50;;
47009;SDS011;59230;54.164;-3.124;2023-05-10T11:20:11;14.27;;;2.20;;
47009;SDS011;59230;54.164;-3.124;2023-05-10T11:22:57;11.43;;;2.92;;
47009;SDS011;59230;54.164;-3.124;2023-05-10T11:25:44;14.90;;;2.20;;
47009;SDS011;59230;54.164;-3.124;2023-05-10T11:28:12;13.02;;;2.15;;
47009;SDS011;59230;54.164;-3.124;2023-05-10T11:30:38;13.25;;;2.05;;
47009;SDS011;59230;54.164;-3.124;2023-05-10T11:33:05;14.05;;;2.65;;
47009;SDS011;59230;54.164;-3.124;2023-05-10T11:35:36;12.43;;;2.00;;
47009;SDS011;59230;54.164;-3.124;2023-05-10T11:38:07;8.07;;;2.10;;
47009;SDS011;59230;54.164;-3.124;2023-05-10T11:40:33;7.50;;;1.90;;
47009;SDS011;59230;54.164;-3.124;2023-05-10T11:43:00;12.77;;;2.35;;
47009;SDS011;59230;54.164;-3.124;2023-05-10T11:48:17;13.15;;;2.08;;
47009;SDS011;59230;54.164;-3.124;2023-05-10T11:50:47;9.65;;;2.08;;
47009;SDS011;59230;54.164;-3.124;2023-05-10T11:53:12;14.35;;;2.28;;
47009;SDS011;59230;54.164;-3.124;2023-05-10T11:55:38;10.60;;;2.20;;
47009;SDS011;59230;54.164;-3.124;2023-05-10T11:58:03;10.93;;;1.75;;
47009;SDS011;59230;54.164;-3.124;2023-05-10T12:00:29;10.18;;;2.42;;
47009;SDS011;59230;54.164;-3.124;2023-05-10T12:02:55;10.60;;;1.80;;
47009;SDS011;59230;54.164;-3.124;2023-05-10T12:05:20;12.20;;;2.50;;
47009;SDS011;59230;54.164;-3.124;2023-05-10T12:07:46;9.38;;;1.85;;
47009;SDS011;59230;54.164;-3.124;2023-05-10T12:10:12;10.93;;;2.00;;
47009;SDS011;59230;54.164;-3.124;2023-05-10T12:12:44;8.82;;;1.70;;
47009;SDS011;59230;54.164;-3.124;2023-05-10T12:15:19;11.75;;;1.80;;
47009;SDS011;59230;54.164;-3.124;2023-05-10T12:17:48;12.27;;;1.75;;
47009;SDS011;59230;54.164;-3.124;2023-05-10T12:22:51;12.65;;;2.15;;
47009;SDS011;59230;54.164;-3.124;2023-05-10T12:25:18;10.35;;;1.90;;
47009;SDS011;59230;54.164;-3.124;2023-05-10T12:30:23;10.65;;;2.03;;
47009;SDS011;59230;54.164;-3.124;2023-05-10T12:32:49;11.32;;;2.15;;
47009;SDS011;59230;54.164;-3.124;2023-05-10T12:35:15;7.25;;;1.90;;
47009;SDS011;59230;54.164;-3.124;2023-05-10T12:37:44;10.95;;;1.60;;
47009;SDS011;59230;54.164;-3.124;2023-05-10T12:40:19;8.20;;;1.90;;
47009;SDS011;59230;54.164;-3.124;2023-05-10T12:42:45;9.45;;;1.60;;
47009;SDS011;59230;54.164;-3.124;2023-05-10T12:45:10;9.07;;;1.77;;
47009;SDS011;59230;54.164;-3.124;2023-05-10T12:47:36;8.10;;;2.00;;
47009;SDS011;59230;54.164;-3.124;2023-05-10T12:50:02;12.10;;;2.00;;
47009;SDS011;59230;54.164;-3.124;2023-05-10T12:52:28;9.70;;;2.00;;
47009;SDS011;59230;54.164;-3.124;2023-05-10T12:54:54;9.00;;;2.25;;
47009;SDS011;59230;54.164;-3.124;2023-05-10T12:57:20;11.80;;;2.30;;
47009;SDS011;59230;54.164;-3.124;2023-05-10T12:59:45;7.47;;;1.58;;
47009;SDS011;59230;54.164;-3.124;2023-05-10T13:02:11;9.35;;;1.65;;
47009;SDS011;59230;54.164;-3.124;2023-05-10T13:04:36;10.60;;;1.60;;
47009;SDS011;59230;54.164;-3.124;2023-05-10T13:07:05;7.82;;;1.83;;
47009;SDS011;59230;54.164;-3.124;2023-05-10T13:09:31;8.43;;;1.35;;
47009;SDS011;59230;54.164;-3.124;2023-05-10T13:11:57;7.45;;;1.30;;
47009;SDS011;59230;54.164;-3.124;2023-05-10T13:14:22;8.88;;;1.80;;
47009;SDS011;59230;54.164;-3.124;2023-05-10T13:16:48;8.07;;;1.70;;
47009;SDS011;59230;54.164;-3.124;2023-05-10T13:19:14;9.57;;;1.77;;
47009;SDS011;59230;54.164;-3.124;2023-05-10T13:21:39;7.45;;;1.70;;
47009;SDS011;59230;54.164;-3.124;2023-05-10T13:24:06;13.15;;;1.98;;
47009;SDS011;59230;54.164;-3.124;2023-05-10T13:26:32;15.98;;;2.17;;
47009;SDS011;59230;54.164;-3.124;2023-05-10T13:28:57;8.85;;;1.60;;
47009;SDS011;59230;54.164;-3.124;2023-05-10T13:31:44;8.40;;;1.77;;
47009;SDS011;59230;54.164;-3.124;2023-05-10T13:34:19;7.78;;;1.60;;
47009;SDS011;59230;54.164;-3.124;2023-05-10T13:39:48;6.45;;;1.50;;
47009;SDS011;59230;54.164;-3.124;2023-05-10T13:42:16;5.50;;;1.55;;
47009;SDS011;59230;54.164;-3.124;2023-05-10T13:44:42;8.73;;;1.70;;
47009;SDS011;59230;54.164;-3.124;2023-05-10T13:47:08;8.57;;;1.58;;
47009;SDS011;59230;54.164;-3.124;2023-05-10T13:49:33;6.70;;;1.85;;
47009;SDS011;59230;54.164;-3.124;2023-05-10T13:51:59;6.65;;;1.98;;
47009;SDS011;59230;54.164;-3.124;2023-05-10T13:54:31;10.02;;;1.90;;
47009;SDS011;59230;54.164;-3.124;2023-05-10T13:57:03;9.23;;;2.00;;
47009;SDS011;59230;54.164;-3.124;2023-05-10T13:59:30;4.40;;;1.33;;
47009;SDS011;59230;54.164;-3.124;2023-05-10T14:02:00;5.40;;;1.23;;
47009;SDS011;59230;54.164;-3.124;2023-05-10T14:04:31;9.70;;;1.55;;
47009;SDS011;59230;54.164;-3.124;2023-05-10T14:06:58;10.43;;;1.90;;
47009;SDS011;59230;54.164;-3.124;2023-05-10T14:09:23;7.72;;;1.42;;
47009;SDS011;59230;54.164;-3.124;2023-05-10T14:11:50;9.68;;;1.80;;
47009;SDS011;59230;54.164;-3.124;2023-05-10T14:14:16;6.53;;;1.30;;
47009;SDS011;59230;54.164;-3.124;2023-05-10T14:16:42;6.57;;;1.60;;
47009;SDS011;59230;54.164;-3.124;2023-05-10T14:19:08;8.60;;;2.05;;
47009;SDS011;59230;54.164;-3.124;2023-05-10T14:21:37;5.35;;;1.40;;
47009;SDS011;59230;54.164;-3.124;2023-05-10T14:24:05;7.13;;;1.50;;
47009;SDS011;59230;54.164;-3.124;2023-05-10T14:26:32;5.45;;;1.23;;
47009;SDS011;59230;54.164;-3.124;2023-05-10T14:29:02;11.40;;;1.75;;
47009;SDS011;59230;54.164;-3.124;2023-05-10T14:31:27;5.18;;;1.50;;
47009;SDS011;59230;54.164;-3.124;2023-05-10T14:33:57;8.02;;;1.55;;
47009;SDS011;59230;54.164;-3.124;2023-05-10T14:36:24;7.90;;;1.63;;
47009;SDS011;59230;54.164;-3.124;2023-05-10T14:38:50;5.78;;;1.23;;
47009;SDS011;59230;54.164;-3.124;2023-05-10T14:41:17;8.68;;;1.50;;
47009;SDS011;59230;54.164;-3.124;2023-05-10T14:43:47;9.85;;;2.63;;
47009;SDS011;59230;54.164;-3.124;2023-05-10T14:46:16;9.25;;;1.55;;
47009;SDS011;59230;54.164;-3.124;2023-05-10T14:48:41;7.10;;;1.50;;
47009;SDS011;59230;54.164;-3.124;2023-05-10T14:51:07;9.52;;;1.50;;
47009;SDS011;59230;54.164;-3.124;2023-05-10T14:53:32;6.70;;;1.17;;
47009;SDS011;59230;54.164;-3.124;2023-05-10T14:56:00;6.32;;;1.10;;
47009;SDS011;59230;54.164;-3.124;2023-05-10T14:58:28;7.18;;;1.20;;
47009;SDS011;59230;54.164;-3.124;2023-05-10T15:00:54;11.05;;;1.85;;
47009;SDS011;59230;54.164;-3.124;2023-05-10T15:03:19;7.10;;;1.13;;
47009;SDS011;59230;54.164;-3.124;2023-05-10T15:05:46;5.72;;;1.10;;
47009;SDS011;59230;54.164;-3.124;2023-05-10T15:08:12;5.80;;;1.45;;